Time,TemperatureF,DewpointF,PressureIn,WindDirection,WindDirectionDegrees,WindSpeedMPH,WindSpeedGustMPH,Humidity,HourlyPrecipIn,Conditions,Clouds,dailyrainin,SoftwareType,DateUTC
2013-01-15 00:08:00,4.4,-3.0,30.45,East,101,0.0,0.0,73,0.00,,,0.00,weatherlink.com 1.10,2013-01-15 07:08:00,
2013-01-15 00:23:00,3.8,-3.0,30.46,East,101,0.0,0.0,74,0.00,,,0.00,weatherlink.com 1.10,2013-01-15 07:23:00,
2013-01-15 00:38:00,3.4,-3.0,30.46,East,101,0.0,0.0,74,0.00,,,0.00,weatherlink.com 1.10,2013-01-15 07:38:00,
2013-01-15 00:53:00,2.6,-3.0,30.46,East,101,0.0,0.0,76,0.00,,,0.00,weatherlink.com 1.10,2013-01-15 07:53:00,
2013-01-15 01:08:00,2.5,-3.0,30.46,East,101,0.0,0.0,78,0.00,,,0.00,weatherlink.com 1.10,2013-01-15 08:08:00,
2013-01-15 01:24:00,2.9,-3.0,30.47,East,101,0.0,0.0,78,0.00,,,0.00,weatherlink.com 1.10,2013-01-15 08:24:00,
2013-01-15 01:39:00,2.1,-4.0,30.46,East,101,0.0,0.0,77,0.00,,,0.00,weatherlink.com 1.10,2013-01-15 08:39:00,
2013-01-15 01:54:00,1.2,-4.0,30.47,East,101,0.0,0.0,79,0.00,,,0.00,weatherlink.com 1.10,2013-01-15 08:54:00,
2013-01-15 02:09:00,2.0,-4.0,30.48,West,269,1.0,2.0,77,0.00,,,0.00,weatherlink.com 1.10,2013-01-15 09:09:00,
2013-01-15 02:24:00,0.6,-4.0,30.46,East,101,0.0,0.0,81,0.00,,,0.00,weatherlink.com 1.10,2013-01-15 09:24:00,
2013-01-15 02:39:00,0.6,-4.0,30.46,East,101,0.0,0.0,81,0.00,,,0.00,weatherlink.com 1.10,2013-01-15 09:39:00,
2013-01-15 02:54:00,1.1,-3.0,30.46,East,101,0.0,0.0,82,0.00,,,0.00,weatherlink.com 1.10,2013-01-15 09:54:00,
2013-01-15 03:09:00,1.3,-4.0,30.46,East,101,0.0,0.0,80,0.00,,,0.00,weatherlink.com 1.10,2013-01-15 10:09:00,
2013-01-15 03:24:00,1.4,-3.0,30.45,East,101,0.0,0.0,82,0.00,,,0.00,weatherlink.com 1.10,2013-01-15 10:24:00,
2013-01-15 03:39:00,0.8,-4.0,30.45,East,101,0.0,0.0,80,0.00,,,0.00,weatherlink.com 1.10,2013-01-15 10:39:00,
2013-01-15 03:54:00,1.2,-3.0,30.45,East,101,0.0,0.0,81,0.00,,,0.00,weatherlink.com 1.10,2013-01-15 10:54:00,
2013-01-15 04:09:00,1.2,-3.0,30.45,East,101,0.0,0.0,81,0.00,,,0.00,weatherlink.com 1.10,2013-01-15 11:09:00,
2013-01-15 04:24:00,1.6,-3.0,30.45,East,101,0.0,0.0,82,0.00,,,0.00,weatherlink.com 1.10,2013-01-15 11:24:00,
2013-01-15 04:39:00,1.6,-3.0,30.45,East,101,0.0,0.0,81,0.00,,,0.00,weatherlink.com 1.10,2013-01-15 11:39:00,
2013-01-15 04:55:00,1.8,-3.0,30.44,East,101,0.0,0.0,81,0.00,,,0.00,weatherlink.com 1.10,2013-01-15 11:55:00,
2013-01-15 05:10:00,1.9,-3.0,30.45,East,101,0.0,0.0,81,0.00,,,0.00,weatherlink.com 1.10,2013-01-15 12:10:00,
2013-01-15 05:25:00,2.1,-3.0,30.45,East,101,0.0,0.0,80,0.00,,,0.00,weatherlink.com 1.10,2013-01-15 12:25:00,
2013-01-15 05:40:00,2.0,-3.0,30.45,East,101,0.0,0.0,80,0.00,,,0.00,weatherlink.com 1.10,2013-01-15 12:40:00,
2013-01-15 05:55:00,2.2,-2.0,30.46,East,101,0.0,0.0,81,0.00,,,0.00,weatherlink.com 1.10,2013-01-15 12:55:00,
2013-01-15 06:10:00,2.7,-2.0,30.45,East,101,0.0,0.0,82,0.00,,,0.00,weatherlink.com 1.10,2013-01-15 13:10:00,
2013-01-15 06:25:00,3.9,0.0,30.46,East,101,0.0,0.0,83,0.00,,,0.00,weatherlink.com 1.10,2013-01-15 13:25:00,
2013-01-15 06:40:00,5.0,1.0,30.45,East,101,0.0,0.0,82,0.00,,,0.00,weatherlink.com 1.10,2013-01-15 13:40:00,
2013-01-15 06:55:00,6.2,1.0,30.46,East,101,0.0,0.0,80,0.00,,,0.00,weatherlink.com 1.10,2013-01-15 13:55:00,
2013-01-15 07:10:00,7.1,2.0,30.46,East,101,0.0,0.0,79,0.00,,,0.00,weatherlink.com 1.10,2013-01-15 14:10:00,
2013-01-15 07:25:00,7.8,3.0,30.48,East,101,0.0,0.0,80,0.00,,,0.00,weatherlink.com 1.10,2013-01-15 14:25:00,
2013-01-15 07:40:00,8.5,4.0,30.49,East,101,0.0,0.0,80,0.00,,,0.00,weatherlink.com 1.10,2013-01-15 14:40:00,
2013-01-15 07:55:00,9.5,4.0,30.48,East,101,0.0,0.0,78,0.00,,,0.00,weatherlink.com 1.10,2013-01-15 14:55:00,
2013-01-15 08:10:00,10.3,4.0,30.48,East,101,0.0,0.0,76,0.00,,,0.00,weatherlink.com 1.10,2013-01-15 15:10:00,
2013-01-15 08:26:00,10.9,5.0,30.49,East,101,0.0,9.0,76,0.00,,,0.00,weatherlink.com 1.10,2013-01-15 15:26:00,
2013-01-15 08:41:00,10.9,5.0,30.49,East,101,0.0,0.0,77,0.00,,,0.00,weatherlink.com 1.10,2013-01-15 15:41:00,
2013-01-15 08:56:00,12.3,6.0,30.49,East,101,0.0,0.0,75,0.00,,,0.00,weatherlink.com 1.10,2013-01-15 15:56:00,
2013-01-15 09:11:00,13.5,7.0,30.49,East,101,0.0,3.0,75,0.00,,,0.00,weatherlink.com 1.10,2013-01-15 16:11:00,
2013-01-15 09:26:00,14.8,7.0,30.49,East,101,0.0,0.0,72,0.00,,,0.00,weatherlink.com 1.10,2013-01-15 16:26:00,
2013-01-15 09:41:00,16.2,8.0,30.49,East,101,0.0,0.0,71,0.00,,,0.00,weatherlink.com 1.10,2013-01-15 16:41:00,
2013-01-15 09:56:00,17.1,8.0,30.49,East,101,0.0,0.0,68,0.00,,,0.00,weatherlink.com 1.10,2013-01-15 16:56:00,
2013-01-15 10:11:00,18.2,9.0,30.49,East,101,0.0,3.0,68,0.00,,,0.00,weatherlink.com 1.10,2013-01-15 17:11:00,
2013-01-15 10:26:00,19.5,9.0,30.48,East,101,0.0,0.0,64,0.00,,,0.00,weatherlink.com 1.10,2013-01-15 17:26:00,
2013-01-15 10:41:00,20.7,9.0,30.47,East,101,0.0,0.0,62,0.00,,,0.00,weatherlink.com 1.10,2013-01-15 17:41:00,
2013-01-15 10:56:00,22.0,10.0,30.46,East,101,0.0,0.0,61,0.00,,,0.00,weatherlink.com 1.10,2013-01-15 17:56:00,
2013-01-15 11:11:00,23.5,11.0,30.46,East,101,0.0,0.0,60,0.00,,,0.00,weatherlink.com 1.10,2013-01-15 18:11:00,
2013-01-15 11:26:00,24.6,14.0,30.44,East,101,0.0,0.0,63,0.00,,,0.00,weatherlink.com 1.10,2013-01-15 18:26:00,
2013-01-15 11:42:00,25.5,14.0,30.44,East,101,0.0,0.0,61,0.00,,,0.00,weatherlink.com 1.10,2013-01-15 18:42:00,
2013-01-15 11:57:00,26.3,12.0,30.44,East,101,0.0,0.0,56,0.00,,,0.00,weatherlink.com 1.10,2013-01-15 18:57:00,
2013-01-15 12:12:00,26.8,14.0,30.44,East,101,0.0,0.0,59,0.00,,,0.00,weatherlink.com 1.10,2013-01-15 19:12:00,
2013-01-15 12:27:00,27.2,15.0,30.43,East,101,0.0,0.0,61,0.00,,,0.00,weatherlink.com 1.10,2013-01-15 19:27:00,
2013-01-15 12:42:00,27.8,13.0,30.42,East,101,0.0,0.0,53,0.00,,,0.00,weatherlink.com 1.10,2013-01-15 19:42:00,
2013-01-15 12:57:00,28.4,13.0,30.42,East,101,0.0,3.0,53,0.00,,,0.00,weatherlink.com 1.10,2013-01-15 19:57:00,
2013-01-15 13:12:00,29.2,13.0,30.41,East,101,0.0,7.0,52,0.00,,,0.00,weatherlink.com 1.10,2013-01-15 20:12:00,
2013-01-15 13:27:00,29.0,12.0,30.41,East,101,0.0,5.0,49,0.00,,,0.00,weatherlink.com 1.10,2013-01-15 20:27:00,
2013-01-15 13:42:00,29.1,13.0,30.41,East,101,0.0,0.0,51,0.00,,,0.00,weatherlink.com 1.10,2013-01-15 20:42:00,
2013-01-15 13:57:00,29.2,13.0,30.41,East,101,0.0,3.0,50,0.00,,,0.00,weatherlink.com 1.10,2013-01-15 20:57:00,
2013-01-15 14:12:00,29.4,13.0,30.41,East,101,0.0,0.0,51,0.00,,,0.00,weatherlink.com 1.10,2013-01-15 21:12:00,
2013-01-15 14:27:00,29.4,14.0,30.41,East,101,0.0,1.0,53,0.00,,,0.00,weatherlink.com 1.10,2013-01-15 21:27:00,
2013-01-15 14:42:00,29.5,15.0,30.41,East,101,0.0,0.0,55,0.00,,,0.00,weatherlink.com 1.10,2013-01-15 21:42:00,
2013-01-15 14:57:00,29.7,16.0,30.42,East,101,0.0,5.0,57,0.00,,,0.00,weatherlink.com 1.10,2013-01-15 21:57:00,
2013-01-15 15:13:00,29.8,16.0,30.42,East,101,0.0,0.0,57,0.00,,,0.00,weatherlink.com 1.10,2013-01-15 22:13:00,
2013-01-15 15:28:00,29.9,16.0,30.42,East,101,0.0,0.0,56,0.00,,,0.00,weatherlink.com 1.10,2013-01-15 22:28:00,
2013-01-15 15:43:00,29.9,16.0,30.41,East,101,0.0,2.0,57,0.00,,,0.00,weatherlink.com 1.10,2013-01-15 22:43:00,
2013-01-15 15:58:00,29.9,17.0,30.41,East,101,0.0,0.0,58,0.00,,,0.00,weatherlink.com 1.10,2013-01-15 22:58:00,
2013-01-15 16:13:00,29.9,17.0,30.40,East,101,0.0,0.0,59,0.00,,,0.00,weatherlink.com 1.10,2013-01-15 23:13:00,
2013-01-15 16:28:00,29.8,17.0,30.41,East,101,0.0,0.0,59,0.00,,,0.00,weatherlink.com 1.10,2013-01-15 23:28:00,
2013-01-15 16:43:00,29.5,17.0,30.42,East,101,0.0,0.0,59,0.00,,,0.00,weatherlink.com 1.10,2013-01-15 23:43:00,
2013-01-15 16:58:00,29.2,16.0,30.42,East,101,0.0,0.0,57,0.00,,,0.00,weatherlink.com 1.10,2013-01-15 23:58:00,
2013-01-15 17:13:00,29.1,16.0,30.41,East,101,0.0,0.0,59,0.00,,,0.00,weatherlink.com 1.10,2013-01-16 00:13:00,
2013-01-15 17:28:00,28.9,15.0,30.40,East,101,0.0,0.0,57,0.00,,,0.00,weatherlink.com 1.10,2013-01-16 00:28:00,
2013-01-15 17:43:00,29.0,16.0,30.40,East,101,0.0,0.0,59,0.00,,,0.00,weatherlink.com 1.10,2013-01-16 00:43:00,
2013-01-15 17:58:00,28.6,17.0,30.42,East,101,0.0,0.0,61,0.00,,,0.00,weatherlink.com 1.10,2013-01-16 00:58:00,
2013-01-15 18:13:00,28.4,18.0,30.42,East,101,0.0,0.0,64,0.00,,,0.00,weatherlink.com 1.10,2013-01-16 01:13:00,
2013-01-15 18:28:00,28.2,19.0,30.41,East,101,0.0,0.0,68,0.00,,,0.00,weatherlink.com 1.10,2013-01-16 01:28:00,
2013-01-15 18:44:00,28.2,18.0,30.41,East,101,0.0,0.0,65,0.00,,,0.00,weatherlink.com 1.10,2013-01-16 01:44:00,
2013-01-15 18:59:00,28.2,20.0,30.40,East,101,0.0,0.0,70,0.00,,,0.00,weatherlink.com 1.10,2013-01-16 01:59:00,
2013-01-15 19:14:00,28.3,20.0,30.40,East,101,0.0,0.0,70,0.00,,,0.00,weatherlink.com 1.10,2013-01-16 02:14:00,
2013-01-15 19:29:00,28.4,19.0,30.39,East,101,0.0,0.0,68,0.00,,,0.00,weatherlink.com 1.10,2013-01-16 02:29:00,
2013-01-15 19:44:00,28.7,20.0,30.39,East,101,0.0,0.0,69,0.00,,,0.00,weatherlink.com 1.10,2013-01-16 02:44:00,
2013-01-15 19:59:00,28.8,19.0,30.39,East,101,0.0,0.0,67,0.00,,,0.00,weatherlink.com 1.10,2013-01-16 02:59:00,
2013-01-15 20:14:00,29.1,18.0,30.38,East,101,0.0,0.0,64,0.00,,,0.00,weatherlink.com 1.10,2013-01-16 03:14:00,
2013-01-15 20:29:00,29.5,19.0,30.38,East,101,0.0,0.0,66,0.00,,,0.00,weatherlink.com 1.10,2013-01-16 03:29:00,
2013-01-15 20:44:00,29.7,19.0,30.38,East,101,0.0,0.0,64,0.00,,,0.00,weatherlink.com 1.10,2013-01-16 03:44:00,
2013-01-15 20:59:00,29.9,20.0,30.38,East,101,0.0,0.0,67,0.00,,,0.00,weatherlink.com 1.10,2013-01-16 03:59:00,
2013-01-15 21:14:00,29.8,21.0,30.39,East,101,0.0,0.0,69,0.00,,,0.00,weatherlink.com 1.10,2013-01-16 04:14:00,
2013-01-15 21:29:00,30.5,20.0,30.40,East,101,2.0,7.0,64,0.00,,,0.00,weatherlink.com 1.10,2013-01-16 04:29:00,
2013-01-15 21:44:00,32.4,19.0,30.40,NNE,17,3.0,8.0,58,0.00,,,0.00,weatherlink.com 1.10,2013-01-16 04:44:00,
2013-01-15 22:15:00,32.0,19.0,30.39,NNE,17,0.0,0.0,59,0.00,,,0.00,weatherlink.com 1.10,2013-01-16 05:15:00,
2013-01-15 22:30:00,31.5,20.0,30.38,NNE,17,0.0,0.0,62,0.00,,,0.00,weatherlink.com 1.10,2013-01-16 05:30:00,
2013-01-15 23:00:00,32.2,20.0,30.38,NNE,17,0.0,0.0,61,0.00,,,0.00,weatherlink.com 1.10,2013-01-16 06:00:00,
2013-01-15 23:15:00,31.0,20.0,30.37,NNE,17,0.0,0.0,63,0.00,,,0.00,weatherlink.com 1.10,2013-01-16 06:15:00,
2013-01-15 23:30:00,30.5,20.0,30.37,NNE,17,0.0,0.0,65,0.00,,,0.00,weatherlink.com 1.10,2013-01-16 06:30:00,
2013-01-15 23:45:00,30.3,20.0,30.36,NNE,17,0.0,0.0,65,0.00,,,0.00,weatherlink.com 1.10,2013-01-16 06:45:00,